Lower Post, Canada
Current Conditions -  °F | °C
As of 8:00 PM on Friday 24 Oct 2014 (Local Time) from CYQH Reporting Station
Broken Clouds Broken Clouds  
Wind Chill: 32°   Ceiling: 3500
Heat Index: 36°   Visibility: 20mi
Dew Point: 30°   Wind: 5mph
Humidity: 81%   Direction: 120°ESE
Pressure: 29.82"   Gusts: NA
Location:  59.92°N, 128.5°W
Report Text: CYQH 250300Z 12004KT 20SM BKN035 02/M01 A2982 RMK SC6 SLP133
Loading
Personal Weather Stations






























Interactive Weather Map
Tropical Storm Tracking
New forecast layout! Learn more

10-Day Weather Forecast

Advertisements
Track Severe Weather on mobile